createdAt,value
2017-05-22T00:00:45.376Z,88.78
2017-05-22T00:01:45.381Z,88.59
2017-05-22T00:02:45.441Z,88.31
2017-05-22T00:03:45.464Z,87.83
2017-05-22T00:04:45.507Z,87.26
2017-05-22T00:05:45.543Z,86.98
2017-05-22T00:06:45.564Z,86.3
2017-05-22T00:07:45.611Z,85.73
2017-05-22T00:08:45.648Z,86.02
2017-05-22T00:09:45.677Z,86.21
2017-05-22T00:10:45.715Z,86.49
2017-05-22T00:11:45.745Z,86.02
2017-05-22T00:12:45.780Z,86.02
2017-05-22T00:13:45.807Z,86.02
2017-05-22T00:14:45.842Z,85.83
2017-05-22T00:15:45.889Z,87.16
2017-05-22T00:16:45.891Z,87.45
2017-05-22T00:17:45.934Z,88.4
2017-05-22T00:18:45.978Z,88.5
2017-05-22T00:19:45.989Z,87.26
2017-05-22T00:20:46.040Z,87.16
2017-05-22T00:21:46.060Z,87.4
2017-05-22T00:22:46.099Z,87.79
2017-05-22T00:23:46.145Z,87.54
2017-05-22T00:24:46.178Z,86.74
2017-05-22T00:25:46.197Z,86.49
2017-05-22T00:26:46.241Z,85.78
2017-05-22T00:27:46.286Z,85.41
2017-05-22T00:28:46.302Z,85.88
2017-05-22T00:29:46.335Z,86.07
2017-05-22T00:30:46.378Z,86.36
2017-05-22T00:31:46.412Z,86.74
2017-05-22T00:32:47.198Z,86.65
2017-05-22T00:33:46.480Z,86.45
2017-05-22T00:34:46.513Z,86.26
2017-05-22T00:35:46.544Z,85.97
2017-05-22T00:36:46.577Z,86.07
2017-05-22T00:37:46.612Z,86.55
2017-05-22T00:38:46.646Z,86.74
2017-05-22T00:39:46.680Z,87.31
2017-05-22T00:40:46.714Z,86.93
2017-05-22T00:41:46.746Z,86.74
2017-05-22T00:42:46.762Z,87.02
2017-05-22T00:43:46.794Z,87.5
2017-05-22T00:44:46.831Z,86.4
2017-05-22T00:45:46.880Z,86.65
2017-05-22T00:46:46.895Z,86.65
2017-05-22T00:47:46.950Z,86.45
2017-05-22T00:48:46.982Z,86.65
2017-05-22T00:49:47.013Z,87.31
2017-05-22T00:50:47.027Z,87.79
2017-05-22T00:51:47.084Z,88.36
2017-05-22T00:52:47.097Z,87.4
2017-05-22T00:53:47.149Z,89.12
2017-05-22T00:54:47.179Z,88.74
2017-05-22T00:55:47.213Z,88.07
2017-05-22T00:56:47.246Z,87.69
2017-05-22T00:57:47.282Z,87.4
2017-05-22T00:58:47.311Z,87.5
2017-05-22T00:59:47.345Z,88.55
2017-05-22T01:00:47.380Z,88.84
2017-05-22T01:01:47.411Z,87.79
2017-05-22T01:02:47.439Z,87.21
2017-05-22T01:03:47.481Z,88.64
2017-05-22T01:04:47.517Z,88.59
2017-05-22T01:05:47.550Z,88.36
2017-05-22T01:06:47.581Z,87.31
2017-05-22T01:07:47.617Z,88.17
2017-05-22T01:08:47.643Z,89.6
2017-05-22T01:09:47.677Z,89.12
2017-05-22T01:10:47.714Z,88.36
2017-05-22T01:11:47.748Z,87.69
2017-05-22T01:12:47.778Z,88.55
2017-05-22T01:13:47.812Z,88.45
2017-05-22T01:14:47.845Z,88.26
2017-05-22T01:15:47.878Z,87.21
2017-05-22T01:16:47.918Z,87.21
2017-05-22T01:17:47.952Z,87.02
2017-05-22T01:18:47.982Z,86.36
2017-05-22T01:19:48.021Z,87.31
2017-05-22T01:20:48.046Z,89.4
2017-05-22T01:21:48.077Z,89.22
2017-05-22T01:22:48.117Z,89.89
2017-05-22T01:23:48.143Z,88.64
2017-05-22T01:24:48.176Z,88.17
2017-05-22T01:25:48.209Z,87.88
2017-05-22T01:26:48.230Z,87.21
2017-05-22T01:27:48.276Z,87.02
2017-05-22T01:28:48.317Z,87.98
2017-05-22T01:29:48.339Z,89.4
2017-05-22T01:30:48.372Z,88.64
2017-05-22T01:31:48.411Z,88.07
2017-05-22T01:32:48.443Z,88.36
2017-05-22T01:33:48.474Z,87.88
2017-05-22T01:34:48.510Z,87.31
2017-05-22T01:35:48.525Z,87.12
2017-05-22T01:36:48.574Z,88.93
2017-05-22T01:37:48.607Z,89.6
2017-05-22T01:38:48.632Z,89.98
2017-05-22T01:39:48.671Z,90.08
2017-05-22T01:40:48.689Z,90.08
2017-05-22T01:41:48.738Z,90.08
2017-05-22T01:42:48.779Z,89.12
2017-05-22T01:43:48.816Z,88.84
2017-05-22T01:44:48.820Z,88.17
2017-05-22T01:45:48.873Z,87.88
2017-05-22T01:46:48.916Z,87.88
2017-05-22T01:47:48.935Z,88.36
2017-05-22T01:48:48.975Z,88.51
2017-05-22T01:49:49.007Z,88.26
2017-05-22T01:50:49.035Z,88.26
2017-05-22T01:51:49.070Z,87.79
2017-05-22T01:52:49.076Z,88.22
2017-05-22T01:53:49.133Z,88.51
2017-05-22T01:54:49.174Z,89.36
2017-05-22T01:55:49.203Z,89.36
2017-05-22T01:56:49.244Z,90.41
2017-05-22T01:57:49.260Z,90.22
2017-05-22T01:58:49.306Z,89.84
2017-05-22T01:59:49.399Z,89.84
2017-05-22T02:00:49.350Z,89.46
2017-05-22T02:01:49.410Z,89.46
2017-05-22T02:02:49.438Z,89.36
2017-05-22T02:03:49.470Z,89.55
2017-05-22T02:04:49.504Z,89.65
2017-05-22T02:05:49.538Z,90.12
2017-05-22T02:06:49.546Z,90.03
2017-05-22T02:07:49.607Z,90.7
2017-05-22T02:08:49.639Z,91.08
2017-05-22T02:09:49.646Z,91.74
2017-05-22T02:10:49.701Z,91.55
2017-05-22T02:11:49.737Z,90.89
2017-05-22T02:12:49.743Z,91.08
2017-05-22T02:13:49.802Z,91.55
2017-05-22T02:14:49.828Z,92.32
2017-05-22T02:15:49.841Z,91.17
2017-05-22T02:16:49.880Z,90.56
2017-05-22T02:17:49.927Z,91.6
2017-05-22T02:18:49.944Z,91.51
2017-05-22T02:19:50.002Z,90.94
2017-05-22T02:20:50.022Z,90.75
2017-05-22T02:21:50.057Z,93.41
2017-05-22T02:22:50.084Z,92.84
2017-05-22T02:23:50.127Z,92.46
2017-05-22T02:24:50.155Z,91.89
2017-05-22T02:25:50.199Z,91.6
2017-05-22T02:26:50.219Z,91.99
2017-05-22T02:27:50.259Z,94.17
2017-05-22T02:28:50.273Z,93.98
2017-05-22T02:29:50.326Z,93.13
2017-05-22T02:30:50.342Z,92.36
2017-05-22T02:31:50.391Z,94.46
2017-05-22T02:32:50.421Z,94.84
2017-05-22T02:33:50.454Z,93.89
2017-05-22T02:34:50.480Z,92.65
2017-05-22T02:35:50.521Z,92.55
2017-05-22T02:36:50.536Z,94.56
2017-05-22T02:37:50.595Z,95.12
2017-05-22T02:38:50.614Z,94.56
2017-05-22T02:39:50.651Z,94.93
2017-05-22T02:40:50.683Z,94.56
2017-05-22T02:41:50.718Z,93.79
2017-05-22T02:42:50.749Z,93.6
2017-05-22T02:43:50.777Z,93.32
2017-05-22T02:44:50.810Z,93.13
2017-05-22T02:45:50.851Z,93.22
2017-05-22T02:46:50.875Z,93.41
2017-05-22T02:47:50.912Z,92.65
2017-05-22T02:48:50.951Z,92.55
2017-05-22T02:49:50.980Z,92.36
2017-05-22T02:50:50.990Z,92.65
2017-05-22T02:51:51.045Z,92.46
2017-05-22T02:52:51.048Z,92.46
2017-05-22T02:53:51.110Z,92.41
2017-05-22T02:54:51.122Z,92.7
2017-05-22T02:55:51.166Z,93.37
2017-05-22T02:56:51.202Z,93.32
2017-05-22T02:57:51.237Z,94.46
2017-05-22T02:58:51.264Z,95.7
2017-05-22T02:59:51.302Z,95.08
2017-05-22T03:00:51.341Z,95.03
2017-05-22T03:01:51.365Z,94.79
2017-05-22T03:02:51.399Z,94.32
2017-05-22T03:03:51.634Z,93.65
2017-05-22T03:04:51.462Z,92.51
2017-05-22T03:05:51.491Z,92.32
2017-05-22T03:06:51.533Z,92.41
2017-05-22T03:07:51.548Z,92.03
2017-05-22T03:08:51.594Z,92.32
2017-05-22T03:09:51.632Z,92.41
2017-05-22T03:10:51.656Z,92.7
2017-05-22T03:11:51.688Z,92.51
2017-05-22T03:12:51.712Z,92.51
2017-05-22T03:13:51.756Z,92.7
2017-05-22T03:14:51.788Z,92.79
2017-05-22T03:15:51.820Z,93.94
2017-05-22T03:16:51.849Z,93.84
2017-05-22T03:17:51.885Z,93.65
2017-05-22T03:18:51.915Z,93.65
2017-05-22T03:19:51.945Z,93.08
2017-05-22T03:20:51.967Z,94.98
2017-05-22T03:21:52.017Z,97.17
2017-05-22T03:22:52.050Z,97.65
2017-05-22T03:23:52.066Z,96.41
2017-05-22T03:24:52.109Z,96.31
2017-05-22T03:25:52.123Z,97.74
2017-05-22T03:26:52.183Z,97.55
2017-05-22T03:27:52.210Z,96.22
2017-05-22T03:28:52.244Z,96.41
2017-05-22T03:29:52.267Z,96.31
2017-05-22T03:30:52.306Z,95.84
2017-05-22T03:31:52.333Z,95.36
2017-05-22T03:32:52.352Z,95.65
2017-05-22T03:33:52.400Z,95.56
2017-05-22T03:34:52.437Z,95.27
2017-05-22T03:35:52.468Z,95.17
2017-05-22T03:36:52.499Z,94.89
2017-05-22T03:37:52.525Z,95.27
2017-05-22T03:38:52.556Z,94.7
2017-05-22T03:39:52.592Z,94.6
2017-05-22T03:40:52.633Z,94.42
2017-05-22T03:41:52.657Z,96.27
2017-05-22T03:42:52.690Z,95.98
2017-05-22T03:43:52.701Z,95.27
2017-05-22T03:44:52.758Z,95.32
2017-05-22T03:45:52.787Z,95.89
2017-05-22T03:46:52.821Z,94.93
2017-05-22T03:47:52.849Z,95.08
2017-05-22T03:48:52.886Z,94.56
2017-05-22T03:49:52.915Z,93.89
2017-05-22T03:50:52.931Z,95.41
2017-05-22T03:51:52.992Z,95.32
2017-05-22T03:52:53.013Z,96.27
2017-05-22T03:53:53.045Z,96.55
2017-05-22T03:54:53.083Z,95.51
2017-05-22T03:55:53.093Z,94.65
2017-05-22T03:56:53.139Z,93.6
2017-05-22T03:57:53.176Z,93.6
2017-05-22T03:58:53.207Z,93.22
2017-05-22T03:59:53.236Z,93.51
2017-05-22T04:00:53.273Z,93.22
2017-05-22T04:01:53.312Z,93.13
2017-05-22T04:02:53.359Z,94.08
2017-05-22T04:03:53.370Z,93.98
2017-05-22T04:04:53.427Z,93.6
2017-05-22T04:05:53.435Z,93.13
2017-05-22T04:06:53.470Z,92.84
2017-05-22T04:07:54.075Z,93.98
2017-05-22T04:08:53.539Z,94.22
2017-05-22T04:09:53.569Z,93.74
2017-05-22T04:10:53.570Z,94.13
2017-05-22T04:11:53.649Z,93.17
2017-05-22T04:12:53.667Z,92.89
2017-05-22T04:13:53.718Z,92.79
2017-05-22T04:14:53.751Z,92.22
2017-05-22T04:15:53.856Z,92.32
2017-05-22T04:16:53.770Z,92.13
2017-05-22T04:17:53.850Z,91.65
2017-05-22T04:18:53.883Z,91.98
2017-05-22T04:19:53.888Z,91.31
2017-05-22T04:20:54.085Z,90.93
2017-05-22T04:21:53.980Z,90.45
2017-05-22T04:22:53.988Z,91.22
2017-05-22T04:23:54.052Z,91.22
2017-05-22T04:24:54.077Z,92.84
2017-05-22T04:25:54.061Z,93.03
2017-05-22T04:26:54.117Z,92.65
2017-05-22T04:27:54.181Z,92.12
2017-05-22T04:28:54.183Z,91.07
2017-05-22T04:29:54.245Z,90.88
2017-05-22T04:30:54.248Z,90.12
2017-05-22T04:31:54.305Z,89.17
2017-05-22T04:32:54.345Z,88.83
2017-05-22T04:33:54.374Z,88.45
2017-05-22T04:34:54.383Z,88.16
2017-05-22T04:35:54.422Z,88.07
2017-05-22T04:36:54.473Z,87.59
2017-05-22T04:37:54.509Z,86.87
2017-05-22T04:38:54.492Z,86.77
2017-05-22T04:39:54.575Z,86.05
2017-05-22T04:40:54.589Z,85.72
2017-05-22T04:41:54.623Z,85.48
2017-05-22T04:42:54.654Z,85.1
2017-05-22T04:43:54.690Z,85.67
2017-05-22T04:44:54.738Z,85.19
2017-05-22T04:45:54.758Z,84.72
2017-05-22T04:46:54.809Z,84.14
2017-05-22T04:47:54.826Z,84.28
2017-05-22T04:48:54.860Z,83.99
2017-05-22T04:49:54.898Z,83.61
2017-05-22T04:50:54.949Z,84.09
2017-05-22T04:51:54.978Z,83.8
2017-05-22T04:52:54.998Z,84.47
2017-05-22T04:53:55.004Z,83.8
2017-05-22T04:54:55.095Z,83.99
2017-05-22T04:55:55.093Z,83.8
2017-05-22T04:56:55.155Z,83.51
2017-05-22T04:57:55.160Z,84.38
2017-05-22T04:58:55.200Z,84.47
2017-05-22T04:59:55.256Z,85.52
2017-05-22T05:00:55.294Z,86.29
2017-05-22T05:01:55.311Z,86.19
2017-05-22T05:02:55.336Z,86.19
2017-05-22T05:03:55.375Z,86.1
2017-05-22T05:04:55.414Z,85.52
2017-05-22T05:05:55.460Z,85.62
2017-05-22T05:06:55.503Z,85.62
2017-05-22T05:07:55.533Z,86
2017-05-22T05:08:55.565Z,85.52
2017-05-22T05:09:55.602Z,86.47
2017-05-22T05:10:55.610Z,88.1
2017-05-22T05:11:55.672Z,88.48
2017-05-22T05:12:55.705Z,88.29
2017-05-22T05:13:55.711Z,86.96
2017-05-22T05:14:55.777Z,86.1
2017-05-22T05:15:55.811Z,85.71
2017-05-22T05:16:55.792Z,86.14
2017-05-22T05:17:55.860Z,86.23
2017-05-22T05:18:55.896Z,85.71
2017-05-22T05:19:55.938Z,84.84
2017-05-22T05:20:55.955Z,83.89
2017-05-22T05:21:56.014Z,82.83
2017-05-22T05:22:56.014Z,82.2
2017-05-22T05:23:56.084Z,81.54
2017-05-22T05:24:56.094Z,81.92
2017-05-22T05:25:56.133Z,81.63
2017-05-22T05:26:56.193Z,82.01
2017-05-22T05:27:56.198Z,82.2
2017-05-22T05:28:56.238Z,82.78
2017-05-22T05:29:56.301Z,84.12
2017-05-22T05:30:56.338Z,83.45
2017-05-22T05:31:56.373Z,82.87
2017-05-22T05:32:56.405Z,82.06
2017-05-22T05:33:56.412Z,80.43
2017-05-22T05:34:56.447Z,79.8
2017-05-22T05:35:56.507Z,80.47
2017-05-22T05:36:56.513Z,79.99
2017-05-22T05:37:56.557Z,78.55
2017-05-22T05:38:56.613Z,77.97
2017-05-22T05:39:56.629Z,77.5
2017-05-22T05:40:56.686Z,77.69
2017-05-22T05:41:56.704Z,76.15
2017-05-22T05:42:56.742Z,76.35
2017-05-22T05:43:56.793Z,76.15
2017-05-22T05:44:56.840Z,76.4
2017-05-22T05:45:56.837Z,75.93
2017-05-22T05:46:56.876Z,75.83
2017-05-22T05:47:56.941Z,76.31
2017-05-22T05:48:56.949Z,76.37
2017-05-22T05:49:57.007Z,76.37
2017-05-22T05:50:57.022Z,76.31
2017-05-22T05:51:57.045Z,76.6
2017-05-22T05:52:57.116Z,76.4
2017-05-22T05:53:57.132Z,76.35
2017-05-22T05:54:57.546Z,75.96
2017-05-22T05:55:57.201Z,75.58
2017-05-22T05:56:57.247Z,74.62
2017-05-22T05:57:57.272Z,75.29
2017-05-22T05:58:57.338Z,75.2
2017-05-22T05:59:57.346Z,74.62
2017-05-22T06:00:57.402Z,74.05
2017-05-22T06:01:57.442Z,73.99
2017-05-22T06:02:57.463Z,73.07
2017-05-22T06:03:57.497Z,71.34
2017-05-22T06:04:57.528Z,70.51
2017-05-22T06:05:57.594Z,69.87
2017-05-22T06:06:57.625Z,67.96
2017-05-22T06:07:57.641Z,66.64
2017-05-22T06:08:57.699Z,64.34
2017-05-22T06:09:57.741Z,63.51
2017-05-22T06:10:57.749Z,62.96
2017-05-22T06:11:57.810Z,59.66
2017-05-22T06:12:57.849Z,58.3
2017-05-22T06:13:57.889Z,56.24
2017-05-22T06:14:57.897Z,53.81
2017-05-22T06:15:57.938Z,49.65
2017-05-22T06:16:57.993Z,48.18
2017-05-22T06:17:58.035Z,45.31
2017-05-22T06:18:58.073Z,42.76
2017-05-22T06:19:58.117Z,42.11
2017-05-22T06:20:58.131Z,41.16
2017-05-22T06:21:58.200Z,39.75
2017-05-22T06:22:58.242Z,38.49
2017-05-22T06:23:58.258Z,37.54
2017-05-22T06:24:58.318Z,38.34
2017-05-22T06:25:58.334Z,37.57
2017-05-22T06:26:58.379Z,37.01
2017-05-22T06:27:58.442Z,36.05
2017-05-22T06:28:58.483Z,35.85
2017-05-22T06:29:58.475Z,35.66
2017-05-22T06:30:58.574Z,35.66
2017-05-22T06:31:58.582Z,35.09
2017-05-22T06:32:58.644Z,35.19
2017-05-22T06:33:58.696Z,34.33
2017-05-22T06:34:58.689Z,33.53
2017-05-22T06:35:58.772Z,32.94
2017-05-22T06:36:58.793Z,34.09
2017-05-22T06:37:58.862Z,34.29
2017-05-22T06:38:58.903Z,34.19
2017-05-22T06:39:58.909Z,33.51
2017-05-22T06:40:58.962Z,34.09
2017-05-22T06:41:59.010Z,34.58
2017-05-22T06:42:59.083Z,34.13
2017-05-22T06:43:59.094Z,33.56
2017-05-22T06:44:59.163Z,33.09
2017-05-22T06:45:59.179Z,32.32
2017-05-22T06:46:59.202Z,32.23
2017-05-22T06:47:59.295Z,32.07
2017-05-22T06:48:59.310Z,31.97
2017-05-22T06:49:59.337Z,31.09
2017-05-22T06:50:59.415Z,30.9
2017-05-22T06:51:59.448Z,31.17
2017-05-22T06:52:59.490Z,31.67
2017-05-22T06:53:59.561Z,31.96
2017-05-22T06:54:59.613Z,32.74
2017-05-22T06:55:59.604Z,31.27
2017-05-22T06:56:59.691Z,31.29
2017-05-22T06:57:59.712Z,30.71
2017-05-22T06:58:59.761Z,30.84
2017-05-22T06:59:59.802Z,30.25
2017-05-22T07:00:59.846Z,30.35
2017-05-22T07:01:59.898Z,30.36
2017-05-22T07:02:59.958Z,30.77
2017-05-22T07:04:00.005Z,30.38
2017-05-22T07:04:59.997Z,30.19
2017-05-22T07:06:00.094Z,30.31
2017-05-22T07:07:00.089Z,30.13
2017-05-22T07:08:00.181Z,29.66
2017-05-22T07:09:00.212Z,29.78
2017-05-22T07:10:00.272Z,28.21
2017-05-22T07:11:00.298Z,27.83
2017-05-22T07:12:00.391Z,27.93
2017-05-22T07:13:00.405Z,28.23
2017-05-22T07:14:00.408Z,28.11
2017-05-22T07:15:00.513Z,27.42
2017-05-22T07:16:00.538Z,28.31
2017-05-22T07:17:00.595Z,28.41
2017-05-22T07:18:00.603Z,28.23
2017-05-22T07:19:00.680Z,28.24
2017-05-22T07:20:00.710Z,27.75
2017-05-22T07:21:00.780Z,27.55
2017-05-22T07:22:00.800Z,27.55
2017-05-22T07:23:00.864Z,27.45
2017-05-22T07:24:00.916Z,27.15
2017-05-22T07:25:00.965Z,26.94
2017-05-22T07:26:01.007Z,27.03
2017-05-22T07:27:01.025Z,27.69
2017-05-22T07:28:01.072Z,27.69
2017-05-22T07:29:01.104Z,28.14
2017-05-22T07:30:01.204Z,28.23
2017-05-22T07:31:01.234Z,28.23
2017-05-22T07:32:01.282Z,28.7
2017-05-22T07:33:01.305Z,29.2
2017-05-22T07:34:01.378Z,28.31
2017-05-22T07:35:01.373Z,28.13
2017-05-22T07:36:01.442Z,27.66
2017-05-22T07:37:01.515Z,27.85
2017-05-22T07:38:01.546Z,28.06
2017-05-22T07:39:01.608Z,28.17
2017-05-22T07:40:01.625Z,28.28
2017-05-22T07:41:01.668Z,27.23
2017-05-22T07:42:01.746Z,26.55
2017-05-22T07:43:01.791Z,26.66
2017-05-22T07:44:01.834Z,25.97
2017-05-22T07:45:01.861Z,26.06
2017-05-22T07:46:01.906Z,26.64
2017-05-22T07:47:01.973Z,26.83
2017-05-22T07:48:01.979Z,26.64
2017-05-22T07:49:02.039Z,26.72
2017-05-22T07:50:02.125Z,26.81
2017-05-22T07:51:02.214Z,26.81
2017-05-22T07:52:02.206Z,27.11
2017-05-22T07:53:02.226Z,27.33
2017-05-22T07:54:02.272Z,26.06
2017-05-22T07:55:02.346Z,25.77
2017-05-22T07:56:02.391Z,25.56
2017-05-22T07:57:02.424Z,26.35
2017-05-22T07:58:02.460Z,26.55
2017-05-22T07:59:02.507Z,25.97
2017-05-22T08:00:02.581Z,26.36
2017-05-22T08:01:02.627Z,25.77
2017-05-22T08:02:02.623Z,25.97
2017-05-22T08:03:02.711Z,26.36
2017-05-22T08:04:02.744Z,26.49
2017-05-22T08:05:02.848Z,25.02
2017-05-22T08:06:02.858Z,25.1
2017-05-22T08:07:02.883Z,25.76
2017-05-22T08:08:02.954Z,25.26
2017-05-22T08:09:02.996Z,25.45
2017-05-22T08:10:03.048Z,25.16
2017-05-22T08:11:03.064Z,25.26
2017-05-22T08:12:03.112Z,25.54
2017-05-22T08:13:03.181Z,25.74
2017-05-22T08:14:03.220Z,25.18
2017-05-22T08:15:03.247Z,23.44
2017-05-22T08:16:03.325Z,24.13
2017-05-22T08:17:03.369Z,24.03
2017-05-22T08:18:03.420Z,23.84
2017-05-22T08:19:03.469Z,24.93
2017-05-22T08:20:03.521Z,24.73
2017-05-22T08:21:03.516Z,24.14
2017-05-22T08:22:03.589Z,24.82
2017-05-22T08:23:03.607Z,24.91
2017-05-22T08:24:03.719Z,24.4
2017-05-22T08:25:03.772Z,24.88
2017-05-22T08:26:03.779Z,25.49
2017-05-22T08:27:03.858Z,24.81
2017-05-22T08:28:03.894Z,24.81
2017-05-22T08:29:03.937Z,24.81
2017-05-22T08:30:03.960Z,24.73
2017-05-22T08:31:04.035Z,24.05
2017-05-22T08:32:04.061Z,23.38
2017-05-22T08:33:04.118Z,23.69
2017-05-22T08:34:04.184Z,23
2017-05-22T08:35:04.218Z,23.19
2017-05-22T08:36:04.284Z,23.88
2017-05-22T08:37:04.327Z,24.07
2017-05-22T08:38:04.333Z,24.07
2017-05-22T08:39:04.429Z,23.86
2017-05-22T08:40:04.496Z,23.67
2017-05-22T08:41:04.525Z,24.33
2017-05-22T08:42:04.524Z,24.11
2017-05-22T08:43:04.599Z,25.39
2017-05-22T08:44:04.651Z,24.8
2017-05-22T08:45:04.694Z,25.21
2017-05-22T08:46:04.743Z,24.82
2017-05-22T08:47:04.813Z,24.33
2017-05-22T08:48:04.833Z,24.15
2017-05-22T08:49:04.983Z,23.97
2017-05-22T08:50:04.965Z,24.2
2017-05-22T08:51:04.997Z,22.74
2017-05-22T08:52:05.064Z,22.66
2017-05-22T08:53:05.113Z,22.75
2017-05-22T08:54:05.131Z,22.64
2017-05-22T08:55:05.263Z,22.85
2017-05-22T08:56:05.336Z,22.75
2017-05-22T08:57:05.318Z,22.17
2017-05-22T08:58:05.336Z,22.82
2017-05-22T08:59:05.384Z,23.55
2017-05-22T09:00:05.674Z,24.1
2017-05-22T09:01:05.605Z,24.88
2017-05-22T09:02:05.535Z,24.57
2017-05-22T09:03:05.674Z,24.77
2017-05-22T09:04:05.634Z,24.58
2017-05-22T09:05:05.706Z,24.58
2017-05-22T09:06:05.732Z,24.09
2017-05-22T09:07:05.788Z,24.6
2017-05-22T09:08:05.824Z,24.01
2017-05-22T09:09:05.910Z,24.02
2017-05-22T09:10:06.007Z,23.94
2017-05-22T09:11:05.971Z,23.85
2017-05-22T09:12:06.031Z,23.37
2017-05-22T09:13:06.103Z,23.08
2017-05-22T09:14:06.148Z,23.01
2017-05-22T09:15:06.555Z,22.72
2017-05-22T09:16:06.231Z,23.11
2017-05-22T09:17:06.277Z,22.4
2017-05-22T09:18:06.323Z,22.99
2017-05-22T09:19:06.376Z,23.47
2017-05-22T09:20:06.461Z,23.37
2017-05-22T09:21:06.504Z,23.1
2017-05-22T09:22:06.526Z,22.24
2017-05-22T09:23:06.599Z,22.14
2017-05-22T09:24:06.655Z,23.32
2017-05-22T09:25:06.682Z,22.4
2017-05-22T09:26:06.728Z,23.27
2017-05-22T09:27:06.795Z,22.67
2017-05-22T09:28:06.825Z,22.69
2017-05-22T09:29:06.903Z,23.08
2017-05-22T09:30:06.928Z,22.49
2017-05-22T09:31:06.997Z,22.97
2017-05-22T09:32:07.031Z,23.16
2017-05-22T09:33:07.071Z,24.25
2017-05-22T09:34:07.125Z,24.32
2017-05-22T09:35:07.178Z,25.15
2017-05-22T09:36:07.244Z,25.03
2017-05-22T09:37:07.296Z,25.42
2017-05-22T09:38:07.356Z,25.03
2017-05-22T09:39:07.397Z,25.14
2017-05-22T09:40:07.423Z,24.65
2017-05-22T09:41:07.493Z,25.89
2017-05-22T09:42:07.523Z,27.39
2017-05-22T09:43:07.601Z,29.66
2017-05-22T09:44:07.624Z,31.33
2017-05-22T09:45:07.687Z,31.76
2017-05-22T09:46:07.736Z,31.48
2017-05-22T09:47:07.760Z,31.59
2017-05-22T09:48:07.831Z,31.87
2017-05-22T09:49:07.841Z,32.82
2017-05-22T09:50:07.926Z,33.75
2017-05-22T09:51:07.964Z,34.3
2017-05-22T09:52:08.024Z,33.53
2017-05-22T09:53:08.049Z,31.64
2017-05-22T09:54:08.093Z,30.16
2017-05-22T09:55:08.135Z,29.06
2017-05-22T09:56:08.168Z,27.57
2017-05-22T09:57:08.333Z,25.85
2017-05-22T09:58:08.284Z,25.21
2017-05-22T09:59:08.334Z,25.42
2017-05-22T10:00:08.392Z,24.56
2017-05-22T10:01:08.430Z,24.2
2017-05-22T10:02:08.581Z,24.14
2017-05-22T10:03:08.478Z,23.07
2017-05-22T10:04:08.529Z,23.19
2017-05-22T10:05:08.625Z,22.03
2017-05-22T10:06:08.641Z,22.22
2017-05-22T10:07:08.714Z,22.22
2017-05-22T10:08:08.739Z,22.73
2017-05-22T10:09:08.819Z,22.93
2017-05-22T10:10:08.848Z,23.49
2017-05-22T10:11:08.913Z,24.43
2017-05-22T10:12:08.940Z,25.93
2017-05-22T10:13:08.986Z,27.11
2017-05-22T10:14:09.040Z,28.68
2017-05-22T10:15:09.080Z,30.19
2017-05-22T10:16:09.149Z,31.41
2017-05-22T10:17:09.193Z,30.24
2017-05-22T10:18:09.245Z,29.6
2017-05-22T10:19:09.269Z,27.98
2017-05-22T10:20:09.339Z,27.15
2017-05-22T10:21:09.341Z,26.34
2017-05-22T10:22:09.412Z,25.2
2017-05-22T10:23:09.447Z,25.12
2017-05-22T10:24:09.520Z,24.07
2017-05-22T10:25:09.549Z,24.28
2017-05-22T10:26:09.588Z,24.68
2017-05-22T10:27:09.632Z,24.67
2017-05-22T10:28:09.698Z,23.69
2017-05-22T10:29:09.741Z,23.99
2017-05-22T10:30:09.794Z,24.87
2017-05-22T10:31:09.828Z,24.88
2017-05-22T10:32:09.892Z,25.38
2017-05-22T10:33:09.911Z,25.44
2017-05-22T10:34:09.946Z,26.26
2017-05-22T10:35:10.019Z,27.47
2017-05-22T10:36:10.232Z,27.55
2017-05-22T10:37:10.113Z,28.88
2017-05-22T10:38:10.134Z,29.99
2017-05-22T10:39:10.178Z,30.93
2017-05-22T10:40:10.227Z,32.16
2017-05-22T10:41:10.292Z,32.7
2017-05-22T10:42:10.329Z,33.64
2017-05-22T10:43:10.329Z,33.91
2017-05-22T10:44:10.390Z,33.99
2017-05-22T10:45:10.436Z,34.77
2017-05-22T10:46:10.502Z,35.05
2017-05-22T10:47:10.533Z,35.05
2017-05-22T10:48:10.590Z,34.95
2017-05-22T10:49:10.632Z,35.9
2017-05-22T10:50:10.625Z,36.18
2017-05-22T10:51:10.694Z,37.15
2017-05-22T10:52:10.744Z,37.05
2017-05-22T10:53:10.781Z,37.61
2017-05-22T10:54:10.843Z,37.23
2017-05-22T10:55:10.867Z,36.66
2017-05-22T10:56:10.917Z,35.53
2017-05-22T10:57:10.947Z,35.06
2017-05-22T10:58:10.969Z,34.97
2017-05-22T10:59:11.032Z,35.53
2017-05-22T11:00:11.096Z,35.9
2017-05-22T11:01:11.139Z,36.36
2017-05-22T11:02:11.158Z,36.95
2017-05-22T11:03:11.226Z,38
2017-05-22T11:04:11.236Z,38.45
2017-05-22T11:05:11.308Z,39.29
2017-05-22T11:06:11.346Z,40.05
2017-05-22T11:07:11.336Z,39.74
2017-05-22T11:08:11.424Z,39.76
2017-05-22T11:09:11.446Z,40.05
2017-05-22T11:10:11.464Z,39.94
2017-05-22T11:11:11.550Z,40.42
2017-05-22T11:12:11.540Z,39.94
2017-05-22T11:13:11.615Z,39.74
2017-05-22T11:14:11.725Z,39.55
2017-05-22T11:15:11.668Z,38.79
2017-05-22T11:16:11.787Z,37.98
2017-05-22T11:17:11.770Z,36.18
2017-05-22T11:18:11.806Z,36.85
2017-05-22T11:19:11.850Z,37.13
2017-05-22T11:20:11.890Z,37.79
2017-05-22T11:21:11.952Z,37.96
2017-05-22T11:22:11.993Z,38.43
2017-05-22T11:23:12.033Z,37.44
2017-05-22T11:24:12.037Z,35.83
2017-05-22T11:25:12.116Z,34.64
2017-05-22T11:26:12.155Z,33.06
2017-05-22T11:27:12.172Z,31.56
2017-05-22T11:28:12.233Z,30.81
2017-05-22T11:29:12.271Z,30.16
2017-05-22T11:30:12.320Z,30.74
2017-05-22T11:31:12.356Z,31.1
2017-05-22T11:32:12.352Z,32.63
2017-05-22T11:33:12.431Z,34.05
2017-05-22T11:34:12.453Z,34.4
2017-05-22T11:35:12.492Z,35.43
2017-05-22T11:36:12.531Z,36
2017-05-22T11:37:12.593Z,36.93
2017-05-22T11:38:12.635Z,37.79
2017-05-22T11:39:12.654Z,38.25
2017-05-22T11:40:12.710Z,39.12
2017-05-22T11:41:12.753Z,38.71
2017-05-22T11:42:12.772Z,39.67
2017-05-22T11:43:12.842Z,40.42
2017-05-22T11:44:12.850Z,40.5
2017-05-22T11:45:12.895Z,40.69
2017-05-22T11:46:12.960Z,41.05
2017-05-22T11:47:12.968Z,40.47
2017-05-22T11:48:13.026Z,40.47
2017-05-22T11:49:13.054Z,40.96
2017-05-22T11:50:13.213Z,40.77
2017-05-22T11:51:13.153Z,40.86
2017-05-22T11:52:13.165Z,40.96
2017-05-22T11:53:13.212Z,41.63
2017-05-22T11:54:13.270Z,41.44
2017-05-22T11:55:13.468Z,41.27
2017-05-22T11:56:13.331Z,40.98
2017-05-22T11:57:13.376Z,41.15
2017-05-22T11:58:13.434Z,40.96
2017-05-22T11:59:13.470Z,40.67
2017-05-22T12:00:13.495Z,39.8
2017-05-22T12:01:13.551Z,40.57
2017-05-22T12:02:13.613Z,40.26
2017-05-22T12:03:13.635Z,39.87
2017-05-22T12:04:13.666Z,39.87
2017-05-22T12:05:13.699Z,40.55
2017-05-22T12:06:13.722Z,39.99
2017-05-22T12:07:13.765Z,39.9
2017-05-22T12:08:13.821Z,39.51
2017-05-22T12:09:13.845Z,39.51
2017-05-22T12:10:13.905Z,39.51
2017-05-22T12:11:13.941Z,39.7
2017-05-22T12:12:13.979Z,39.51
2017-05-22T12:13:13.997Z,39.51
2017-05-22T12:14:14.061Z,39.99
2017-05-22T12:15:14.059Z,40.01
2017-05-22T12:16:14.138Z,40.01
2017-05-22T12:17:14.160Z,39.9
2017-05-22T12:18:14.199Z,40.47
2017-05-22T12:19:14.257Z,40.38
2017-05-22T12:20:14.272Z,41.25
2017-05-22T12:21:14.342Z,40.75
2017-05-22T12:22:14.378Z,41.13
2017-05-22T12:23:14.401Z,41.03
2017-05-22T12:24:14.430Z,41.35
2017-05-22T12:25:14.469Z,41.15
2017-05-22T12:26:14.530Z,41.05
2017-05-22T12:27:14.578Z,41.15
2017-05-22T12:28:14.590Z,41.05
2017-05-22T12:29:14.635Z,41.63
2017-05-22T12:30:14.671Z,41.35
2017-05-22T12:31:14.711Z,41.44
2017-05-22T12:32:14.783Z,41.15
2017-05-22T12:33:14.792Z,40.57
2017-05-22T12:34:14.845Z,40.47
2017-05-22T12:35:14.889Z,40.38
2017-05-22T12:36:14.922Z,40.47
2017-05-22T12:37:15.021Z,40.38
2017-05-22T12:38:14.983Z,40.67
2017-05-22T12:39:15.028Z,40.38
2017-05-22T12:40:15.191Z,40.47
2017-05-22T12:41:15.100Z,40.67
2017-05-22T12:42:15.144Z,40.77
2017-05-22T12:43:15.167Z,40.28
2017-05-22T12:44:15.242Z,40.65
2017-05-22T12:45:15.390Z,40.75
2017-05-22T12:46:15.322Z,40.75
2017-05-22T12:47:15.341Z,40.75
2017-05-22T12:48:15.378Z,39.87
2017-05-22T12:49:15.399Z,40.17
2017-05-22T12:50:15.451Z,39.78
2017-05-22T12:51:15.494Z,39.87
2017-05-22T12:52:15.537Z,39.87
2017-05-22T12:53:15.601Z,39.69
2017-05-22T12:54:15.628Z,39.11
2017-05-22T12:55:15.681Z,39.11
2017-05-22T12:56:15.698Z,39.29